Observations for Trim Market St
| Time | AQI | Temp °C | Hum % | Pres Pa | CO μg/m³ | H₂S μg/m³ | NO μg/m³ | NO₂ μg/m³ | O₃ μg/m³ | SO₂ μg/m³ | PM1 μg/m³ | PM2.5 μg/m³ | PM10 μg/m³ |
|---|---|---|---|---|---|---|---|---|---|---|---|---|---|
| Sunday 16 August 2026 | |||||||||||||
| 20:44 | 3 | 20.3 | 74 | 39,048 | 0.32 | 0 | 1.31 | 10.02 | 58.91 | 0 | 0.71 | 2.4 | 4.5 |
| 20:43 | 3 | 20.3 | 74 | 39,831 | 0.32 | 0 | 1.26 | 10.03 | 61.41 | 0 | 0.71 | 2.89 | 5.71 |
| 20:41 | 3 | 20.4 | 73 | 41,135 | 0.32 | 0 | 1.24 | 8.94 | 63.78 | 0 | 0 | 1.45 | 3.28 |
| 20:40 | 3 | 20.4 | 73 | 41,680 | 0.08 | 0 | 1.21 | 5.61 | 62.56 | 0 | 0 | 1.46 | 3.88 |
| 20:39 | 3 | 20.4 | 73 | 42,153 | 0.08 | 0 | 1.22 | 5.19 | 65.13 | 0 | 0.71 | 1.94 | 3.88 |
| 20:38 | 3 | 20.4 | 73 | 42,719 | 0.1 | 0 | 1.25 | 6.72 | 66.13 | 0 | 0 | 1.95 | 3.88 |
| 20:37 | 3 | 20.5 | 73 | 43,369 | 0.17 | 0 | 1.26 | 8.07 | 65.44 | 0 | 0 | 1.47 | 3.87 |
| 20:36 | 3 | 20.5 | 73 | 44,143 | 0.01 | 0 | 1.39 | 9.91 | 60.36 | 0 | 0 | 2.44 | 4.48 |
| 20:35 | 3 | 20.5 | 73 | 44,843 | 0.02 | 0 | 1.37 | 7.79 | 63.49 | 0 | 0.71 | 2.44 | 4.48 |
| 20:34 | 3 | 20.5 | 73 | 45,514 | 0.07 | 0 | 1.38 | 8.75 | 63.24 | 0 | 0.71 | 2.44 | 5.7 |
| 20:29 | 3 | 20.5 | 72 | 47,044 | 0.35 | 0 | 1.38 | 10.79 | 58.06 | 0 | 0.71 | 2.46 | 5.08 |
| 20:27 | 3 | 20.6 | 72 | 47,775 | 0.2 | 0 | 1.32 | 7.39 | 66.06 | 0 | 0.71 | 1.99 | 3.84 |
| 20:21 | 3 | 20.6 | 72 | 49,514 | 0.44 | 0 | 1.31 | 5.48 | 63.55 | 0 | 1.43 | 2.97 | 5.06 |
| 20:19 | 3 | 20.7 | 72 | 50,054 | 0 | 0 | 1.33 | 7.9 | 64.78 | 0 | 0 | 2.02 | 5.06 |
| 20:14 | 3 | 20.7 | 71 | 50,976 | 0.26 | 0 | 1.39 | 6.29 | 61.24 | 0 | 0.71 | 2.03 | 3.81 |
| 20:13 | 3 | 20.7 | 71 | 51,040 | 0.37 | 0 | 1.35 | 5.71 | 62.96 | 0 | 1.43 | 2.03 | 3.81 |
| 20:10 | 3 | 20.7 | 71 | 51,416 | 0.25 | 0 | 1.25 | 7.15 | 59.72 | 0 | 0.71 | 2.53 | 5.04 |
| 20:08 | 3 | 20.8 | 71 | 51,633 | 0.15 | 0 | 1.25 | 6 | 61.66 | 0 | 0.71 | 2.53 | 4.42 |
| 20:01 | 3 | 20.9 | 70 | 52,500 | 0 | 0 | 1.09 | 3.94 | 74.68 | 0 | 1.43 | 2.56 | 4.4 |
| 19:58 | 3 | 20.9 | 70 | 52,711 | 0 | 0 | 1.12 | 4.32 | 66.81 | 0 | 0 | 1.6 | 3.14 |